Time,TemperatureF,DewpointF,PressureIn,WindDirection,WindDirectionDegrees,WindSpeedMPH,WindSpeedGustMPH,Humidity,HourlyPrecipIn,Conditions,Clouds,dailyrainin,SoftwareType,DateUTC
2013-07-09 00:01:00,65.6,64.7,30.00,North,7,0.0,0.0,97,0.00,,,0.00,WeatherCatV1.15B25,2013-07-09 04:01:00,
2013-07-09 00:06:00,65.5,64.3,30.00,North,7,0.0,0.0,96,0.00,,,0.00,WeatherCatV1.15B25,2013-07-09 04:06:00,
2013-07-09 00:11:00,65.5,64.3,30.00,North,7,0.0,0.0,96,0.00,,,0.00,WeatherCatV1.15B25,2013-07-09 04:11:00,
2013-07-09 00:16:00,65.5,64.6,29.99,North,7,0.0,0.0,97,0.00,,,0.00,WeatherCatV1.15B25,2013-07-09 04:16:00,
2013-07-09 00:21:00,65.5,64.6,29.99,North,7,0.0,0.0,97,0.00,,,0.00,WeatherCatV1.15B25,2013-07-09 04:21:00,
2013-07-09 00:26:00,65.5,64.3,29.99,North,7,0.0,0.0,96,0.00,,,0.00,WeatherCatV1.15B25,2013-07-09 04:26:00,
2013-07-09 00:31:00,65.5,64.6,29.99,NNE,27,0.0,1.0,97,0.00,,,0.00,WeatherCatV1.15B25,2013-07-09 04:31:00,
2013-07-09 00:36:00,65.6,64.7,29.99,NNE,27,0.0,0.0,97,0.00,,,0.00,WeatherCatV1.15B25,2013-07-09 04:36:00,
2013-07-09 00:41:00,65.7,64.8,29.99,NNE,27,0.0,0.0,97,0.00,,,0.00,WeatherCatV1.15B25,2013-07-09 04:41:00,
2013-07-09 00:46:00,65.7,64.8,29.99,NNE,27,0.0,0.0,97,0.00,,,0.00,WeatherCatV1.15B25,2013-07-09 04:46:00,
2013-07-09 00:51:00,65.8,64.9,29.99,NNE,27,0.0,0.0,97,0.00,,,0.00,WeatherCatV1.15B25,2013-07-09 04:51:00,
2013-07-09 00:56:00,65.8,64.9,29.99,NNE,27,0.0,0.0,97,0.00,,,0.00,WeatherCatV1.15B25,2013-07-09 04:56:00,
2013-07-09 01:01:00,65.7,64.8,29.99,NNE,27,0.0,2.0,97,0.00,,,0.00,WeatherCatV1.15B25,2013-07-09 05:01:00,
2013-07-09 01:06:00,65.6,64.7,29.99,NNE,27,0.0,0.0,97,0.00,,,0.00,WeatherCatV1.15B25,2013-07-09 05:06:00,
2013-07-09 01:11:00,65.5,64.6,29.99,NNE,27,0.0,0.0,97,0.00,,,0.00,WeatherCatV1.15B25,2013-07-09 05:11:00,
2013-07-09 01:16:00,65.5,64.6,29.99,NNE,27,0.0,0.0,97,0.00,,,0.00,WeatherCatV1.15B25,2013-07-09 05:16:00,
2013-07-09 01:21:00,65.4,64.2,29.99,NNE,27,0.0,0.0,96,0.00,,,0.00,WeatherCatV1.15B25,2013-07-09 05:21:00,
2013-07-09 01:26:00,65.3,64.4,29.99,NNE,27,0.0,0.0,97,0.00,,,0.00,WeatherCatV1.15B25,2013-07-09 05:26:00,
2013-07-09 01:31:00,65.3,64.4,29.99,NNE,27,0.0,0.0,97,0.00,,,0.00,WeatherCatV1.15B25,2013-07-09 05:31:00,
2013-07-09 01:36:00,65.3,64.4,29.99,NNE,27,0.0,1.0,97,0.00,,,0.00,WeatherCatV1.15B25,2013-07-09 05:36:00,
2013-07-09 01:41:00,65.1,63.9,29.99,NNE,27,0.0,0.0,96,0.00,,,0.00,WeatherCatV1.15B25,2013-07-09 05:41:00,
2013-07-09 01:46:00,65.0,64.1,29.99,NNE,27,0.0,0.0,97,0.00,,,0.00,WeatherCatV1.15B25,2013-07-09 05:46:00,
2013-07-09 01:51:00,64.9,63.7,29.99,NNE,27,0.0,0.0,96,0.00,,,0.00,WeatherCatV1.15B25,2013-07-09 05:51:00,
2013-07-09 01:56:00,64.9,63.7,29.99,North,7,0.0,0.0,96,0.00,,,0.00,WeatherCatV1.15B25,2013-07-09 05:56:00,
2013-07-09 02:01:00,64.9,64.0,29.99,North,7,0.0,0.0,97,0.00,,,0.00,WeatherCatV1.15B25,2013-07-09 06:01:00,
2013-07-09 02:06:00,64.9,64.0,29.99,North,7,0.0,0.0,97,0.00,,,0.00,WeatherCatV1.15B25,2013-07-09 06:06:00,
2013-07-09 02:11:00,64.9,63.7,29.99,North,7,0.0,0.0,96,0.00,,,0.00,WeatherCatV1.15B25,2013-07-09 06:11:00,
2013-07-09 02:16:00,64.9,64.0,29.98,North,7,0.0,1.0,97,0.00,,,0.00,WeatherCatV1.15B25,2013-07-09 06:16:00,
2013-07-09 02:21:00,64.8,63.6,29.98,NE,53,1.0,1.0,96,0.00,,,0.00,WeatherCatV1.15B25,2013-07-09 06:21:00,
2013-07-09 02:26:00,64.8,63.6,29.98,NNW,342,0.0,0.0,96,0.00,,,0.00,WeatherCatV1.15B25,2013-07-09 06:26:00,
2013-07-09 02:31:00,64.8,63.9,29.99,NNW,344,0.0,0.0,97,0.00,,,0.00,WeatherCatV1.15B25,2013-07-09 06:31:00,
2013-07-09 02:36:00,64.8,63.9,29.99,NNW,344,0.0,0.0,97,0.00,,,0.00,WeatherCatV1.15B25,2013-07-09 06:36:00,
2013-07-09 02:41:00,64.8,63.9,29.98,NNW,344,0.0,0.0,97,0.00,,,0.00,WeatherCatV1.15B25,2013-07-09 06:41:00,
2013-07-09 02:46:00,64.8,63.9,29.98,NNW,344,0.0,0.0,97,0.00,,,0.00,WeatherCatV1.15B25,2013-07-09 06:46:00,
2013-07-09 02:51:00,64.7,63.8,29.98,NNW,344,0.0,0.0,97,0.00,,,0.00,WeatherCatV1.15B25,2013-07-09 06:51:00,
2013-07-09 02:56:00,64.8,63.9,29.98,NNW,344,0.0,0.0,97,0.00,,,0.00,WeatherCatV1.15B25,2013-07-09 06:56:00,
2013-07-09 03:01:00,64.8,63.9,29.98,NNW,344,0.0,0.0,97,0.00,,,0.00,WeatherCatV1.15B25,2013-07-09 07:01:00,
2013-07-09 03:06:00,64.8,63.9,29.98,NNW,344,0.0,0.0,97,0.00,,,0.00,WeatherCatV1.15B25,2013-07-09 07:06:00,
2013-07-09 03:11:00,64.8,63.9,29.98,NNW,344,0.0,0.0,97,0.00,,,0.00,WeatherCatV1.15B25,2013-07-09 07:11:00,
2013-07-09 03:16:00,64.8,63.9,29.98,NNW,344,0.0,0.0,97,0.00,,,0.00,WeatherCatV1.15B25,2013-07-09 07:16:00,
2013-07-09 03:21:00,64.8,63.9,29.98,NNW,344,0.0,0.0,97,0.00,,,0.00,WeatherCatV1.15B25,2013-07-09 07:21:00,
2013-07-09 03:26:00,64.7,63.8,29.98,NNW,344,0.0,0.0,97,0.00,,,0.00,WeatherCatV1.15B25,2013-07-09 07:26:00,
2013-07-09 03:31:00,64.7,63.8,29.98,NNW,344,0.0,0.0,97,0.00,,,0.00,WeatherCatV1.15B25,2013-07-09 07:31:00,
2013-07-09 03:36:00,64.7,63.8,29.99,NNW,344,0.0,0.0,97,0.00,,,0.00,WeatherCatV1.15B25,2013-07-09 07:36:00,
2013-07-09 03:41:00,64.7,63.8,29.99,NNW,344,0.0,0.0,97,0.00,,,0.00,WeatherCatV1.15B25,2013-07-09 07:41:00,
2013-07-09 03:46:00,64.6,63.7,29.99,NNW,344,0.0,0.0,97,0.00,,,0.00,WeatherCatV1.15B25,2013-07-09 07:46:00,
2013-07-09 03:52:00,64.6,63.7,29.99,NNW,344,0.0,0.0,97,0.00,,,0.00,WeatherCatV1.15B25,2013-07-09 07:52:00,
2013-07-09 03:57:00,64.5,63.6,29.99,NNW,344,0.0,0.0,97,0.00,,,0.00,WeatherCatV1.15B25,2013-07-09 07:57:00,
2013-07-09 04:02:00,64.5,63.6,29.99,NNW,344,0.0,0.0,97,0.00,,,0.00,WeatherCatV1.15B25,2013-07-09 08:02:00,
2013-07-09 04:07:00,64.5,63.6,29.99,NNW,344,0.0,0.0,97,0.00,,,0.00,WeatherCatV1.15B25,2013-07-09 08:07:00,
2013-07-09 04:12:00,64.5,63.6,29.99,NNW,344,0.0,0.0,97,0.00,,,0.00,WeatherCatV1.15B25,2013-07-09 08:12:00,
2013-07-09 04:17:00,64.5,63.6,29.99,NNW,344,0.0,0.0,97,0.00,,,0.00,WeatherCatV1.15B25,2013-07-09 08:17:00,
2013-07-09 04:22:00,64.5,63.6,29.99,NNW,344,0.0,0.0,97,0.00,,,0.00,WeatherCatV1.15B25,2013-07-09 08:22:00,
2013-07-09 04:27:00,64.6,63.7,30.00,NNW,344,0.0,0.0,97,0.00,,,0.00,WeatherCatV1.15B25,2013-07-09 08:27:00,
2013-07-09 04:32:00,64.6,63.7,30.00,NNW,344,0.0,0.0,97,0.00,,,0.00,WeatherCatV1.15B25,2013-07-09 08:32:00,
2013-07-09 04:37:00,64.6,63.7,30.00,NNW,344,0.0,0.0,97,0.00,,,0.00,WeatherCatV1.15B25,2013-07-09 08:37:00,
2013-07-09 04:42:00,64.7,64.1,30.00,NNW,344,0.0,0.0,98,0.00,,,0.00,WeatherCatV1.15B25,2013-07-09 08:42:00,
2013-07-09 04:47:00,64.7,64.1,30.00,NNW,344,0.0,0.0,98,0.00,,,0.00,WeatherCatV1.15B25,2013-07-09 08:47:00,
2013-07-09 04:52:00,64.7,64.1,30.00,NNW,344,0.0,0.0,98,0.00,,,0.00,WeatherCatV1.15B25,2013-07-09 08:52:00,
2013-07-09 04:57:00,64.7,63.8,30.00,NNW,344,0.0,0.0,97,0.00,,,0.00,WeatherCatV1.15B25,2013-07-09 08:57:00,
2013-07-09 05:02:00,64.6,63.7,30.00,NNW,344,0.0,0.0,97,0.00,,,0.00,WeatherCatV1.15B25,2013-07-09 09:02:00,
2013-07-09 05:07:00,64.6,63.7,30.00,NNW,344,0.0,1.0,97,0.00,,,0.00,WeatherCatV1.15B25,2013-07-09 09:07:00,
2013-07-09 05:12:00,64.6,64.0,30.00,NNW,344,0.0,0.0,98,0.00,,,0.00,WeatherCatV1.15B25,2013-07-09 09:12:00,
2013-07-09 05:17:00,64.6,63.7,30.00,NNW,344,0.0,0.0,97,0.00,,,0.00,WeatherCatV1.15B25,2013-07-09 09:17:00,
2013-07-09 05:22:00,64.6,64.0,30.00,NNW,344,0.0,0.0,98,0.00,,,0.00,WeatherCatV1.15B25,2013-07-09 09:22:00,
2013-07-09 05:27:00,64.5,63.6,30.00,NNW,344,0.0,0.0,97,0.00,,,0.00,WeatherCatV1.15B25,2013-07-09 09:27:00,
2013-07-09 05:33:00,64.5,63.9,30.00,NNW,344,0.0,0.0,98,0.00,,,0.00,WeatherCatV1.15B25,2013-07-09 09:33:00,
2013-07-09 05:38:00,64.6,63.7,30.00,NNW,344,0.0,0.0,97,0.00,,,0.00,WeatherCatV1.15B25,2013-07-09 09:38:00,
2013-07-09 05:43:00,64.6,63.7,30.00,NNW,344,0.0,0.0,97,0.00,,,0.00,WeatherCatV1.15B25,2013-07-09 09:43:00,
2013-07-09 05:48:00,64.5,63.6,30.01,NNW,344,0.0,0.0,97,0.00,,,0.00,WeatherCatV1.15B25,2013-07-09 09:48:00,
2013-07-09 05:53:00,64.6,64.0,30.01,NNW,344,0.0,0.0,98,0.00,,,0.00,WeatherCatV1.15B25,2013-07-09 09:53:00,
2013-07-09 05:58:00,64.6,63.7,30.01,NNW,344,0.0,0.0,97,0.00,,,0.00,WeatherCatV1.15B25,2013-07-09 09:58:00,
2013-07-09 06:03:00,64.6,64.0,30.01,NNW,344,0.0,0.0,98,0.00,,,0.00,WeatherCatV1.15B25,2013-07-09 10:03:00,
2013-07-09 06:08:00,64.6,64.0,30.01,NNW,344,0.0,0.0,98,0.00,,,0.00,WeatherCatV1.15B25,2013-07-09 10:08:00,
2013-07-09 06:13:00,64.6,64.0,30.01,NNW,344,0.0,0.0,98,0.00,,,0.00,WeatherCatV1.15B25,2013-07-09 10:13:00,
2013-07-09 06:18:00,64.6,64.0,30.02,NNW,344,0.0,0.0,98,0.00,,,0.00,WeatherCatV1.15B25,2013-07-09 10:18:00,
2013-07-09 06:23:00,64.7,64.1,30.02,NNW,344,0.0,0.0,98,0.00,,,0.00,WeatherCatV1.15B25,2013-07-09 10:23:00,
2013-07-09 06:28:00,64.7,64.1,30.02,NNW,344,0.0,0.0,98,0.00,,,0.00,WeatherCatV1.15B25,2013-07-09 10:28:00,
2013-07-09 06:33:00,64.7,64.1,30.02,NNW,344,0.0,0.0,98,0.00,,,0.00,WeatherCatV1.15B25,2013-07-09 10:33:00,
2013-07-09 06:38:00,64.7,64.1,30.02,NNW,344,0.0,0.0,98,0.00,,,0.00,WeatherCatV1.15B25,2013-07-09 10:38:00,
2013-07-09 06:43:00,64.7,64.1,30.02,NNW,344,0.0,0.0,98,0.00,,,0.00,WeatherCatV1.15B25,2013-07-09 10:43:00,
2013-07-09 06:48:00,64.8,64.2,30.02,NNW,344,0.0,0.0,98,0.00,,,0.00,WeatherCatV1.15B25,2013-07-09 10:48:00,
2013-07-09 06:53:00,64.9,64.3,30.03,NNW,344,0.0,0.0,98,0.00,,,0.00,WeatherCatV1.15B25,2013-07-09 10:53:00,
2013-07-09 06:58:00,64.9,64.3,30.03,NNW,344,0.0,0.0,98,0.00,,,0.00,WeatherCatV1.15B25,2013-07-09 10:58:00,
2013-07-09 07:03:00,65.0,64.4,30.03,NNW,344,0.0,0.0,98,0.00,,,0.00,WeatherCatV1.15B25,2013-07-09 11:03:00,
2013-07-09 07:08:00,65.1,64.5,30.03,NNW,344,0.0,0.0,98,0.00,,,0.00,WeatherCatV1.15B25,2013-07-09 11:08:00,
2013-07-09 07:13:00,65.1,64.5,30.03,NNW,344,0.0,0.0,98,0.00,,,0.00,WeatherCatV1.15B25,2013-07-09 11:13:00,
2013-07-09 07:18:00,65.2,64.6,30.03,NNW,344,0.0,0.0,98,0.00,,,0.00,WeatherCatV1.15B25,2013-07-09 11:18:00,
2013-07-09 07:23:00,65.2,64.6,30.03,NNW,344,0.0,0.0,98,0.00,,,0.00,WeatherCatV1.15B25,2013-07-09 11:23:00,
2013-07-09 07:28:00,65.3,64.7,30.03,NNW,344,0.0,0.0,98,0.00,,,0.00,WeatherCatV1.15B25,2013-07-09 11:28:00,
2013-07-09 07:33:00,65.4,64.8,30.03,NNW,344,0.0,0.0,98,0.00,,,0.00,WeatherCatV1.15B25,2013-07-09 11:33:00,
2013-07-09 07:38:00,65.5,64.9,30.03,NNW,344,0.0,0.0,98,0.00,,,0.00,WeatherCatV1.15B25,2013-07-09 11:38:00,
2013-07-09 07:43:00,65.4,64.8,30.03,NNW,344,0.0,0.0,98,0.00,,,0.00,WeatherCatV1.15B25,2013-07-09 11:43:00,
2013-07-09 07:48:00,65.5,64.9,30.03,NNW,344,0.0,0.0,98,0.00,,,0.00,WeatherCatV1.15B25,2013-07-09 11:48:00,
2013-07-09 07:53:00,65.6,65.0,30.03,NNW,344,0.0,0.0,98,0.00,,,0.00,WeatherCatV1.15B25,2013-07-09 11:53:00,
2013-07-09 07:58:00,65.7,65.1,30.03,NNW,344,0.0,0.0,98,0.00,,,0.00,WeatherCatV1.15B25,2013-07-09 11:58:00,
2013-07-09 08:03:00,65.8,65.2,30.03,NNW,344,0.0,0.0,98,0.00,,,0.00,WeatherCatV1.15B25,2013-07-09 12:03:00,
2013-07-09 08:08:00,65.8,64.9,30.03,NNW,344,0.0,0.0,97,0.00,,,0.00,WeatherCatV1.15B25,2013-07-09 12:08:00,
2013-07-09 08:13:00,65.9,65.3,30.04,NNW,344,0.0,0.0,98,0.00,,,0.00,WeatherCatV1.15B25,2013-07-09 12:13:00,
2013-07-09 08:18:00,65.9,65.3,30.04,NNW,344,0.0,0.0,98,0.00,,,0.00,WeatherCatV1.15B25,2013-07-09 12:18:00,
2013-07-09 08:23:00,66.0,65.4,30.04,NNW,344,0.0,0.0,98,0.00,,,0.00,WeatherCatV1.15B25,2013-07-09 12:23:00,
2013-07-09 08:28:00,66.1,65.2,30.04,NNW,344,0.0,0.0,97,0.00,,,0.00,WeatherCatV1.15B25,2013-07-09 12:28:00,
2013-07-09 08:33:00,66.1,65.2,30.04,NNW,344,0.0,0.0,97,0.00,,,0.00,WeatherCatV1.15B25,2013-07-09 12:33:00,
2013-07-09 08:38:00,66.2,65.3,30.03,NNW,344,0.0,0.0,97,0.00,,,0.00,WeatherCatV1.15B25,2013-07-09 12:38:00,
2013-07-09 08:43:00,66.4,65.5,30.03,NNW,344,0.0,0.0,97,0.00,,,0.00,WeatherCatV1.15B25,2013-07-09 12:43:00,
2013-07-09 08:48:00,66.4,65.5,30.03,NNW,344,0.0,0.0,97,0.00,,,0.00,WeatherCatV1.15B25,2013-07-09 12:48:00,
2013-07-09 08:53:00,66.5,65.6,30.04,NNW,344,0.0,0.0,97,0.00,,,0.00,WeatherCatV1.15B25,2013-07-09 12:53:00,
2013-07-09 08:58:00,66.4,65.5,30.04,NNW,344,0.0,0.0,97,0.00,,,0.00,WeatherCatV1.15B25,2013-07-09 12:58:00,
2013-07-09 09:03:00,66.4,65.5,30.04,NNW,344,0.0,0.0,97,0.00,,,0.00,WeatherCatV1.15B25,2013-07-09 13:03:00,
2013-07-09 09:08:00,66.5,65.6,30.04,NNW,344,0.0,0.0,97,0.00,,,0.00,WeatherCatV1.15B25,2013-07-09 13:08:00,
2013-07-09 09:13:00,66.5,65.6,30.04,NNW,344,0.0,1.0,97,0.00,,,0.00,WeatherCatV1.15B25,2013-07-09 13:13:00,
2013-07-09 09:18:00,66.5,65.6,30.04,NNW,344,0.0,0.0,97,0.00,,,0.00,WeatherCatV1.15B25,2013-07-09 13:18:00,
2013-07-09 09:23:00,66.4,65.5,30.04,NNW,344,0.0,0.0,97,0.00,,,0.00,WeatherCatV1.15B25,2013-07-09 13:23:00,
2013-07-09 09:28:00,66.4,65.5,30.04,NNW,344,0.0,0.0,97,0.00,,,0.00,WeatherCatV1.15B25,2013-07-09 13:28:00,
2013-07-09 09:33:00,66.4,65.5,30.04,NNW,344,0.0,0.0,97,0.00,,,0.00,WeatherCatV1.15B25,2013-07-09 13:33:00,
2013-07-09 09:38:00,66.5,65.6,30.04,NNW,344,0.0,0.0,97,0.00,,,0.00,WeatherCatV1.15B25,2013-07-09 13:38:00,
2013-07-09 09:43:00,66.6,65.7,30.04,NNW,344,0.0,0.0,97,0.00,,,0.00,WeatherCatV1.15B25,2013-07-09 13:43:00,
2013-07-09 09:48:00,66.7,65.8,30.04,NNW,344,0.0,0.0,97,0.00,,,0.00,WeatherCatV1.15B25,2013-07-09 13:48:00,
2013-07-09 09:53:00,66.8,65.9,30.03,NNW,344,0.0,0.0,97,0.00,,,0.00,WeatherCatV1.15B25,2013-07-09 13:53:00,
2013-07-09 09:58:00,66.9,65.7,30.03,NNW,344,0.0,0.0,96,0.00,,,0.00,WeatherCatV1.15B25,2013-07-09 13:58:00,
2013-07-09 10:03:00,67.0,65.8,30.03,NNW,345,0.0,0.0,96,0.00,,,0.00,WeatherCatV1.15B25,2013-07-09 14:03:00,
2013-07-09 10:08:00,67.2,66.0,30.03,NNW,345,0.0,0.0,96,0.00,,,0.00,WeatherCatV1.15B25,2013-07-09 14:08:00,
2013-07-09 10:13:00,67.4,66.2,30.03,NNW,345,0.0,0.0,96,0.00,,,0.00,WeatherCatV1.15B25,2013-07-09 14:13:00,
2013-07-09 10:18:00,67.8,66.6,30.03,NNW,345,0.0,0.0,96,0.00,,,0.00,WeatherCatV1.15B25,2013-07-09 14:18:00,
2013-07-09 10:23:00,67.9,66.4,30.03,NNW,345,0.0,0.0,95,0.00,,,0.00,WeatherCatV1.15B25,2013-07-09 14:23:00,
2013-07-09 10:28:00,68.1,66.6,30.03,North,2,0.0,0.0,95,0.00,,,0.00,WeatherCatV1.15B25,2013-07-09 14:28:00,
2013-07-09 10:33:00,68.3,66.5,30.03,ENE,60,0.0,0.0,94,0.00,,,0.00,WeatherCatV1.15B25,2013-07-09 14:33:00,
2013-07-09 10:38:00,68.3,66.5,30.03,NE,53,0.0,1.0,94,0.00,,,0.00,WeatherCatV1.15B25,2013-07-09 14:38:00,
2013-07-09 10:43:00,68.5,66.4,30.03,NNE,26,0.0,0.0,93,0.00,,,0.00,WeatherCatV1.15B25,2013-07-09 14:43:00,
2013-07-09 10:48:00,68.8,66.7,30.04,NNE,18,1.0,2.0,93,0.00,,,0.00,WeatherCatV1.15B25,2013-07-09 14:48:00,
2013-07-09 10:53:00,68.8,66.4,30.03,East,91,0.0,1.0,92,0.00,,,0.00,WeatherCatV1.15B25,2013-07-09 14:53:00,
2013-07-09 10:58:00,68.8,66.4,30.03,NE,55,0.0,2.0,92,0.00,,,0.00,WeatherCatV1.15B25,2013-07-09 14:58:00,
2013-07-09 11:03:00,68.9,66.5,30.03,NE,55,0.0,0.0,92,0.00,,,0.00,WeatherCatV1.15B25,2013-07-09 15:03:00,
2013-07-09 11:08:00,69.0,66.3,30.03,NE,44,0.0,0.0,91,0.00,,,0.00,WeatherCatV1.15B25,2013-07-09 15:08:00,
2013-07-09 11:13:00,69.0,66.3,30.03,NE,44,0.0,0.0,91,0.00,,,0.00,WeatherCatV1.15B25,2013-07-09 15:13:00,
2013-07-09 11:18:00,69.0,66.3,30.03,NE,51,0.0,0.0,91,0.00,,,0.00,WeatherCatV1.15B25,2013-07-09 15:18:00,
2013-07-09 11:23:00,69.0,66.3,30.04,NNE,21,0.0,0.0,91,0.00,,,0.00,WeatherCatV1.15B25,2013-07-09 15:23:00,
2013-07-09 11:28:00,69.2,66.5,30.04,NNE,13,0.0,0.0,91,0.00,,,0.00,WeatherCatV1.15B25,2013-07-09 15:28:00,
2013-07-09 11:33:00,69.3,65.9,30.04,NE,55,0.0,0.0,89,0.00,,,0.00,WeatherCatV1.15B25,2013-07-09 15:33:00,
2013-07-09 11:38:00,69.3,66.2,30.04,ESE,105,0.0,0.0,90,0.00,,,0.00,WeatherCatV1.15B25,2013-07-09 15:38:00,
2013-07-09 11:43:00,69.2,66.1,30.04,NE,42,0.0,0.0,90,0.00,,,0.00,WeatherCatV1.15B25,2013-07-09 15:43:00,
2013-07-09 11:48:00,69.2,66.1,30.04,NE,37,0.0,0.0,90,0.00,,,0.00,WeatherCatV1.15B25,2013-07-09 15:48:00,
2013-07-09 11:53:00,69.2,66.1,30.04,NNE,24,0.0,0.0,90,0.00,,,0.00,WeatherCatV1.15B25,2013-07-09 15:53:00,
2013-07-09 11:58:00,69.3,66.2,30.04,North,7,0.0,0.0,90,0.00,,,0.00,WeatherCatV1.15B25,2013-07-09 15:58:00,
2013-07-09 12:03:00,69.2,66.1,30.04,North,11,0.0,0.0,90,0.00,,,0.00,WeatherCatV1.15B25,2013-07-09 16:03:00,
2013-07-09 12:08:00,69.1,65.7,30.04,NE,36,0.0,0.0,89,0.00,,,0.00,WeatherCatV1.15B25,2013-07-09 16:08:00,
2013-07-09 12:13:00,69.1,66.0,30.04,NE,35,0.0,0.0,90,0.00,,,0.00,WeatherCatV1.15B25,2013-07-09 16:13:00,
2013-07-09 12:18:00,69.2,66.1,30.04,NE,35,0.0,0.0,90,0.00,,,0.00,WeatherCatV1.15B25,2013-07-09 16:18:00,
2013-07-09 12:23:00,69.1,65.7,30.04,NNE,22,0.0,0.0,89,0.00,,,0.00,WeatherCatV1.15B25,2013-07-09 16:23:00,
2013-07-09 12:28:00,69.2,65.8,30.04,NNE,22,0.0,0.0,89,0.00,,,0.00,WeatherCatV1.15B25,2013-07-09 16:28:00,
2013-07-09 12:33:00,69.2,65.5,30.04,NNE,31,0.0,0.0,88,0.00,,,0.00,WeatherCatV1.15B25,2013-07-09 16:33:00,
2013-07-09 12:38:00,68.9,65.2,30.04,NNE,17,0.0,0.0,88,0.00,,,0.00,WeatherCatV1.15B25,2013-07-09 16:38:00,
2013-07-09 12:43:00,68.8,65.4,30.04,NE,41,0.0,0.0,89,0.00,,,0.00,WeatherCatV1.15B25,2013-07-09 16:43:00,
2013-07-09 12:48:00,68.7,65.3,30.04,ENE,74,0.0,0.0,89,0.00,,,0.00,WeatherCatV1.15B25,2013-07-09 16:48:00,
2013-07-09 12:53:00,68.7,65.3,30.04,NE,43,0.0,0.0,89,0.00,,,0.00,WeatherCatV1.15B25,2013-07-09 16:53:00,
2013-07-09 12:58:00,68.7,65.6,30.04,NE,50,0.0,0.0,90,0.00,,,0.00,WeatherCatV1.15B25,2013-07-09 16:58:00,
2013-07-09 13:03:00,69.1,65.7,30.04,NNE,17,0.0,0.0,89,0.00,,,0.00,WeatherCatV1.15B25,2013-07-09 17:03:00,
2013-07-09 13:08:00,69.6,65.9,30.04,North,7,0.0,0.0,88,0.00,,,0.00,WeatherCatV1.15B25,2013-07-09 17:08:00,
2013-07-09 13:13:00,69.9,66.2,30.04,NNE,19,0.0,0.0,88,0.00,,,0.00,WeatherCatV1.15B25,2013-07-09 17:13:00,
2013-07-09 13:18:00,70.1,66.0,30.04,NNE,19,0.0,0.0,87,0.00,,,0.00,WeatherCatV1.15B25,2013-07-09 17:18:00,
2013-07-09 13:23:00,70.1,66.4,30.04,NE,37,0.0,0.0,88,0.00,,,0.00,WeatherCatV1.15B25,2013-07-09 17:23:00,
2013-07-09 13:28:00,70.4,66.7,30.03,ESE,106,0.0,0.0,88,0.00,,,0.00,WeatherCatV1.15B25,2013-07-09 17:28:00,
2013-07-09 13:33:00,70.5,66.1,30.04,East,88,0.0,0.0,86,0.00,,,0.00,WeatherCatV1.15B25,2013-07-09 17:33:00,
2013-07-09 13:38:00,70.3,65.9,30.03,East,81,0.0,0.0,86,0.00,,,0.00,WeatherCatV1.15B25,2013-07-09 17:38:00,
2013-07-09 13:43:00,70.2,66.1,30.03,NNE,12,0.0,0.0,87,0.00,,,0.00,WeatherCatV1.15B25,2013-07-09 17:43:00,
2013-07-09 13:48:00,70.6,66.5,30.03,NNE,12,0.0,0.0,87,0.00,,,0.00,WeatherCatV1.15B25,2013-07-09 17:48:00,
2013-07-09 13:53:00,71.0,66.9,30.03,North,7,0.0,1.0,87,0.00,,,0.00,WeatherCatV1.15B25,2013-07-09 17:53:00,
2013-07-09 13:58:00,71.0,66.3,30.03,NNE,15,0.0,1.0,85,0.00,,,0.00,WeatherCatV1.15B25,2013-07-09 17:58:00,
2013-07-09 14:03:00,70.8,66.4,30.03,ESE,118,0.0,0.0,86,0.00,,,0.00,WeatherCatV1.15B25,2013-07-09 18:03:00,
2013-07-09 14:08:00,70.8,66.4,30.03,NNE,13,0.0,3.0,86,0.00,,,0.00,WeatherCatV1.15B25,2013-07-09 18:08:00,
2013-07-09 14:13:00,70.9,66.2,30.03,NNE,24,0.0,1.0,85,0.00,,,0.00,WeatherCatV1.15B25,2013-07-09 18:13:00,
2013-07-09 14:18:00,70.8,66.1,30.03,East,94,0.0,0.0,85,0.00,,,0.00,WeatherCatV1.15B25,2013-07-09 18:18:00,
2013-07-09 14:23:00,70.8,66.4,30.03,North,7,0.0,0.0,86,0.00,,,0.00,WeatherCatV1.15B25,2013-07-09 18:23:00,
2013-07-09 14:28:00,71.1,66.0,30.03,ESE,110,0.0,0.0,84,0.00,,,0.00,WeatherCatV1.15B25,2013-07-09 18:28:00,
2013-07-09 14:33:00,70.8,66.1,30.03,North,7,0.0,1.0,85,0.00,,,0.00,WeatherCatV1.15B25,2013-07-09 18:33:00,
2013-07-09 14:38:00,70.8,66.1,30.03,NE,49,0.0,0.0,85,0.00,,,0.00,WeatherCatV1.15B25,2013-07-09 18:38:00,
2013-07-09 14:43:00,71.0,66.6,30.02,NNE,13,0.0,1.0,86,0.00,,,0.00,WeatherCatV1.15B25,2013-07-09 18:43:00,
2013-07-09 14:48:00,71.4,66.6,30.02,NE,42,0.0,0.0,85,0.00,,,0.00,WeatherCatV1.15B25,2013-07-09 18:48:00,
2013-07-09 14:53:00,71.8,67.0,30.02,North,11,0.0,1.0,85,0.00,,,0.00,WeatherCatV1.15B25,2013-07-09 18:53:00,
2013-07-09 14:58:00,72.7,67.2,30.02,ENE,57,0.0,0.0,83,0.00,,,0.00,WeatherCatV1.15B25,2013-07-09 18:58:00,
2013-07-09 15:03:00,72.6,66.8,30.02,East,85,0.0,0.0,82,0.00,,,0.00,WeatherCatV1.15B25,2013-07-09 19:03:00,
2013-07-09 15:08:00,72.5,67.0,30.03,North,7,0.0,1.0,83,0.00,,,0.00,WeatherCatV1.15B25,2013-07-09 19:08:00,
2013-07-09 15:13:00,72.2,66.4,30.03,NNE,14,0.0,2.0,82,0.00,,,0.01,WeatherCatV1.15B25,2013-07-09 19:13:00,
2013-07-09 15:18:00,72.1,66.6,30.03,NNE,16,0.0,0.0,83,0.00,,,0.01,WeatherCatV1.15B25,2013-07-09 19:18:00,
2013-07-09 15:23:00,71.9,66.4,30.02,NNW,333,0.0,0.0,83,0.00,,,0.01,WeatherCatV1.15B25,2013-07-09 19:23:00,
2013-07-09 15:28:00,71.8,66.7,30.02,NE,36,0.0,0.0,84,0.00,,,0.01,WeatherCatV1.15B25,2013-07-09 19:28:00,
2013-07-09 15:33:00,71.7,66.6,30.02,East,97,0.0,0.0,84,0.00,,,0.01,WeatherCatV1.15B25,2013-07-09 19:33:00,
2013-07-09 15:38:00,71.6,66.5,30.02,East,99,0.0,0.0,84,0.00,,,0.01,WeatherCatV1.15B25,2013-07-09 19:38:00,
2013-07-09 15:43:00,71.5,66.4,30.02,NE,54,0.0,0.0,84,0.00,,,0.01,WeatherCatV1.15B25,2013-07-09 19:43:00,
2013-07-09 15:48:00,71.5,66.4,30.02,NNE,28,0.0,0.0,84,0.00,,,0.01,WeatherCatV1.15B25,2013-07-09 19:48:00,
2013-07-09 15:53:00,71.5,66.4,30.02,NE,42,0.0,0.0,84,0.00,,,0.01,WeatherCatV1.15B25,2013-07-09 19:53:00,
2013-07-09 15:58:00,71.5,66.4,30.02,ESE,109,0.0,0.0,84,0.00,,,0.01,WeatherCatV1.15B25,2013-07-09 19:58:00,
2013-07-09 16:03:00,71.5,66.4,30.03,ESE,109,0.0,0.0,84,0.00,,,0.01,WeatherCatV1.15B25,2013-07-09 20:03:00,
2013-07-09 16:08:00,71.6,66.5,30.03,NNE,31,0.0,0.0,84,0.00,,,0.01,WeatherCatV1.15B25,2013-07-09 20:08:00,
2013-07-09 16:13:00,71.6,66.5,30.02,NNE,33,0.0,0.0,84,0.00,,,0.01,WeatherCatV1.15B25,2013-07-09 20:13:00,
2013-07-09 16:18:00,71.4,66.3,30.03,NNE,17,0.0,0.0,84,0.00,,,0.01,WeatherCatV1.15B25,2013-07-09 20:18:00,
2013-07-09 16:23:00,71.3,65.9,30.02,NE,47,0.0,0.0,83,0.00,,,0.01,WeatherCatV1.15B25,2013-07-09 20:23:00,
2013-07-09 16:28:00,71.1,66.0,30.02,NE,36,0.0,0.0,84,0.00,,,0.01,WeatherCatV1.15B25,2013-07-09 20:28:00,
2013-07-09 16:33:00,71.0,65.9,30.02,NNE,20,0.0,0.0,84,0.00,,,0.01,WeatherCatV1.15B25,2013-07-09 20:33:00,
2013-07-09 16:38:00,70.9,65.8,30.02,NNE,20,0.0,0.0,84,0.00,,,0.01,WeatherCatV1.15B25,2013-07-09 20:38:00,
2013-07-09 16:43:00,70.8,65.7,30.02,NNE,20,0.0,0.0,84,0.00,,,0.01,WeatherCatV1.15B25,2013-07-09 20:43:00,
2013-07-09 16:48:00,70.6,65.9,30.01,NNE,20,0.0,0.0,85,0.00,,,0.01,WeatherCatV1.15B25,2013-07-09 20:48:00,
2013-07-09 16:53:00,70.6,65.5,30.01,NNE,20,0.0,0.0,84,0.00,,,0.01,WeatherCatV1.15B25,2013-07-09 20:53:00,
2013-07-09 16:58:00,70.7,65.6,30.01,ENE,57,0.0,0.0,84,0.00,,,0.01,WeatherCatV1.15B25,2013-07-09 20:58:00,
2013-07-09 17:03:00,70.9,66.2,30.01,North,7,0.0,0.0,85,0.00,,,0.01,WeatherCatV1.15B25,2013-07-09 21:03:00,
2013-07-09 17:08:00,71.1,65.7,30.01,NE,46,0.0,0.0,83,0.00,,,0.01,WeatherCatV1.15B25,2013-07-09 21:08:00,
2013-07-09 17:13:00,71.1,66.0,30.01,NE,52,0.0,0.0,84,0.00,,,0.01,WeatherCatV1.15B25,2013-07-09 21:13:00,
2013-07-09 17:18:00,71.0,65.6,30.01,North,351,0.0,0.0,83,0.00,,,0.01,WeatherCatV1.15B25,2013-07-09 21:18:00,
2013-07-09 17:23:00,70.9,65.8,30.01,North,351,0.0,0.0,84,0.00,,,0.01,WeatherCatV1.15B25,2013-07-09 21:23:00,
2013-07-09 17:28:00,70.8,65.7,30.01,NNE,18,0.0,0.0,84,0.00,,,0.01,WeatherCatV1.15B25,2013-07-09 21:28:00,
2013-07-09 17:33:00,70.7,65.6,30.01,NNE,17,0.0,0.0,84,0.00,,,0.01,WeatherCatV1.15B25,2013-07-09 21:33:00,
2013-07-09 17:38:00,70.7,65.6,30.00,SE,134,0.0,0.0,84,0.00,,,0.01,WeatherCatV1.15B25,2013-07-09 21:38:00,
2013-07-09 17:43:00,70.4,65.3,30.00,ENE,57,0.0,0.0,84,0.00,,,0.01,WeatherCatV1.15B25,2013-07-09 21:43:00,
2013-07-09 17:48:00,70.2,65.5,30.00,North,353,0.0,0.0,85,0.00,,,0.01,WeatherCatV1.15B25,2013-07-09 21:48:00,
2013-07-09 17:53:00,69.9,65.2,30.00,NE,40,0.0,0.0,85,0.00,,,0.01,WeatherCatV1.15B25,2013-07-09 21:53:00,
2013-07-09 17:58:00,69.6,64.9,30.00,NNE,12,0.0,1.0,85,0.00,,,0.01,WeatherCatV1.15B25,2013-07-09 21:58:00,
2013-07-09 18:03:00,69.5,65.1,30.00,NE,50,0.0,0.0,86,0.00,,,0.01,WeatherCatV1.15B25,2013-07-09 22:03:00,
2013-07-09 18:08:00,69.3,64.9,30.00,ENE,63,0.0,0.0,86,0.00,,,0.01,WeatherCatV1.15B25,2013-07-09 22:08:00,
2013-07-09 18:13:00,69.2,64.8,30.00,NNE,16,0.0,0.0,86,0.00,,,0.01,WeatherCatV1.15B25,2013-07-09 22:13:00,
2013-07-09 18:18:00,69.2,65.2,30.00,ENE,72,0.0,0.0,87,0.00,,,0.01,WeatherCatV1.15B25,2013-07-09 22:18:00,
2013-07-09 18:23:00,69.1,65.1,30.00,NNE,17,0.0,0.0,87,0.00,,,0.01,WeatherCatV1.15B25,2013-07-09 22:23:00,
2013-07-09 18:28:00,69.0,65.0,30.00,East,80,0.0,1.0,87,0.00,,,0.01,WeatherCatV1.15B25,2013-07-09 22:28:00,
2013-07-09 18:33:00,68.9,64.9,30.00,North,7,0.0,1.0,87,0.00,,,0.01,WeatherCatV1.15B25,2013-07-09 22:33:00,
2013-07-09 18:38:00,68.8,64.8,30.00,ENE,71,0.0,0.0,87,0.00,,,0.01,WeatherCatV1.15B25,2013-07-09 22:38:00,
2013-07-09 18:43:00,68.8,64.8,30.00,NNW,332,0.0,2.0,87,0.00,,,0.01,WeatherCatV1.15B25,2013-07-09 22:43:00,
2013-07-09 18:48:00,68.6,64.6,30.00,NNW,333,0.0,0.0,87,0.00,,,0.01,WeatherCatV1.15B25,2013-07-09 22:48:00,
2013-07-09 18:53:00,68.5,64.5,30.00,NNW,334,0.0,0.0,87,0.00,,,0.01,WeatherCatV1.15B25,2013-07-09 22:53:00,
2013-07-09 18:58:00,68.4,64.4,30.00,NNE,20,0.0,1.0,87,0.00,,,0.01,WeatherCatV1.15B25,2013-07-09 22:58:00,
2013-07-09 19:03:00,68.3,64.3,30.01,NNE,20,0.0,0.0,87,0.00,,,0.01,WeatherCatV1.15B25,2013-07-09 23:03:00,
2013-07-09 19:08:00,68.3,64.3,30.00,NNE,20,0.0,0.0,87,0.00,,,0.01,WeatherCatV1.15B25,2013-07-09 23:08:00,
2013-07-09 19:13:00,68.2,64.5,30.00,ENE,78,0.0,0.0,88,0.00,,,0.01,WeatherCatV1.15B25,2013-07-09 23:13:00,
2013-07-09 19:18:00,68.1,64.4,30.00,NE,37,0.0,0.0,88,0.00,,,0.01,WeatherCatV1.15B25,2013-07-09 23:18:00,
2013-07-09 19:23:00,68.0,64.3,30.00,NE,35,0.0,0.0,88,0.00,,,0.01,WeatherCatV1.15B25,2013-07-09 23:23:00,
2013-07-09 19:28:00,67.9,64.2,30.00,NE,35,0.0,0.0,88,0.00,,,0.01,WeatherCatV1.15B25,2013-07-09 23:28:00,
2013-07-09 19:33:00,67.9,64.5,30.00,NE,35,0.0,0.0,89,0.00,,,0.01,WeatherCatV1.15B25,2013-07-09 23:33:00,
2013-07-09 19:38:00,68.0,64.6,30.00,NE,44,0.0,0.0,89,0.00,,,0.01,WeatherCatV1.15B25,2013-07-09 23:38:00,
2013-07-09 19:43:00,67.9,64.5,30.00,NE,44,0.0,0.0,89,0.00,,,0.01,WeatherCatV1.15B25,2013-07-09 23:43:00,
2013-07-09 19:48:00,67.8,64.4,30.00,NE,44,0.0,0.0,89,0.00,,,0.01,WeatherCatV1.15B25,2013-07-09 23:48:00,
2013-07-09 19:53:00,67.8,64.4,30.00,NE,44,0.0,0.0,89,0.00,,,0.01,WeatherCatV1.15B25,2013-07-09 23:53:00,
2013-07-09 19:58:00,67.8,64.4,30.00,North,7,0.0,0.0,89,0.00,,,0.01,WeatherCatV1.15B25,2013-07-09 23:58:00,
2013-07-09 20:03:00,67.7,64.3,30.00,North,7,0.0,0.0,89,0.00,,,0.01,WeatherCatV1.15B25,2013-07-10 00:03:00,
2013-07-09 20:08:00,67.6,64.2,30.00,East,79,0.0,0.0,89,0.00,,,0.01,WeatherCatV1.15B25,2013-07-10 00:08:00,
2013-07-09 20:13:00,67.5,64.1,30.00,ENE,74,0.0,0.0,89,0.00,,,0.01,WeatherCatV1.15B25,2013-07-10 00:13:00,
2013-07-09 20:18:00,67.4,64.0,30.01,ENE,69,0.0,0.0,89,0.00,,,0.01,WeatherCatV1.15B25,2013-07-10 00:18:00,
2013-07-09 20:23:00,67.4,64.4,30.01,ENE,69,0.0,0.0,90,0.00,,,0.01,WeatherCatV1.15B25,2013-07-10 00:23:00,
2013-07-09 20:28:00,67.4,64.4,30.01,ENE,69,0.0,0.0,90,0.00,,,0.01,WeatherCatV1.15B25,2013-07-10 00:28:00,
2013-07-09 20:33:00,67.3,64.3,30.01,ENE,69,0.0,0.0,90,0.00,,,0.01,WeatherCatV1.15B25,2013-07-10 00:33:00,
2013-07-09 20:38:00,67.2,64.2,30.01,ENE,69,0.0,0.0,90,0.00,,,0.01,WeatherCatV1.15B25,2013-07-10 00:38:00,
2013-07-09 20:43:00,67.0,64.3,30.01,ENE,69,0.0,0.0,91,0.00,,,0.01,WeatherCatV1.15B25,2013-07-10 00:43:00,
2013-07-09 20:48:00,67.0,64.3,30.01,ENE,69,0.0,0.0,91,0.00,,,0.01,WeatherCatV1.15B25,2013-07-10 00:48:00,
2013-07-09 20:53:00,66.9,64.2,30.02,ENE,69,0.0,0.0,91,0.00,,,0.01,WeatherCatV1.15B25,2013-07-10 00:53:00,
2013-07-09 20:58:00,66.9,64.2,30.02,ENE,69,0.0,0.0,91,0.00,,,0.01,WeatherCatV1.15B25,2013-07-10 00:58:00,
2013-07-09 21:03:00,66.9,64.2,30.02,ENE,69,0.0,0.0,91,0.00,,,0.01,WeatherCatV1.15B25,2013-07-10 01:03:00,
2013-07-09 21:08:00,66.8,64.1,30.02,ENE,69,0.0,0.0,91,0.00,,,0.01,WeatherCatV1.15B25,2013-07-10 01:08:00,
2013-07-09 21:13:00,66.9,64.2,30.02,ENE,69,0.0,0.0,91,0.00,,,0.01,WeatherCatV1.15B25,2013-07-10 01:13:00,
2013-07-09 21:18:00,66.9,64.2,30.01,ENE,67,0.0,0.0,91,0.00,,,0.01,WeatherCatV1.15B25,2013-07-10 01:18:00,
2013-07-09 21:23:00,66.9,64.2,30.02,ENE,67,0.0,0.0,91,0.00,,,0.01,WeatherCatV1.15B25,2013-07-10 01:23:00,
2013-07-09 21:28:00,67.0,64.3,30.02,ENE,67,0.0,0.0,91,0.00,,,0.01,WeatherCatV1.15B25,2013-07-10 01:28:00,
2013-07-09 21:33:00,67.0,64.3,30.02,ENE,67,0.0,0.0,91,0.00,,,0.01,WeatherCatV1.15B25,2013-07-10 01:33:00,
2013-07-09 21:38:00,67.0,64.3,30.02,ENE,67,0.0,0.0,91,0.00,,,0.01,WeatherCatV1.15B25,2013-07-10 01:38:00,
2013-07-09 21:43:00,67.0,64.3,30.01,ENE,67,0.0,0.0,91,0.00,,,0.01,WeatherCatV1.15B25,2013-07-10 01:43:00,
2013-07-09 21:48:00,67.0,64.3,30.02,ENE,67,0.0,0.0,91,0.00,,,0.01,WeatherCatV1.15B25,2013-07-10 01:48:00,
2013-07-09 21:53:00,67.0,64.3,30.01,ENE,67,0.0,0.0,91,0.00,,,0.01,WeatherCatV1.15B25,2013-07-10 01:53:00,
2013-07-09 21:58:00,67.0,64.6,30.02,ENE,67,0.0,0.0,92,0.00,,,0.01,WeatherCatV1.15B25,2013-07-10 01:58:00,
2013-07-09 22:03:00,67.1,64.7,30.02,ENE,67,0.0,0.0,92,0.00,,,0.01,WeatherCatV1.15B25,2013-07-10 02:03:00,
2013-07-09 22:08:00,67.2,64.5,30.02,ENE,67,0.0,0.0,91,0.00,,,0.01,WeatherCatV1.15B25,2013-07-10 02:08:00,
2013-07-09 22:13:00,67.2,64.5,30.02,ENE,67,0.0,0.0,91,0.00,,,0.01,WeatherCatV1.15B25,2013-07-10 02:13:00,
2013-07-09 22:18:00,67.3,64.6,30.01,ENE,67,0.0,0.0,91,0.00,,,0.01,WeatherCatV1.15B25,2013-07-10 02:18:00,
2013-07-09 22:23:00,67.4,64.7,30.01,ENE,67,0.0,0.0,91,0.00,,,0.01,WeatherCatV1.15B25,2013-07-10 02:23:00,
2013-07-09 22:28:00,67.4,64.7,30.01,ENE,67,0.0,0.0,91,0.00,,,0.01,WeatherCatV1.15B25,2013-07-10 02:28:00,
2013-07-09 22:33:00,67.3,64.3,30.01,ENE,67,0.0,0.0,90,0.00,,,0.01,WeatherCatV1.15B25,2013-07-10 02:33:00,
2013-07-09 22:38:00,67.3,64.6,30.01,ENE,67,0.0,0.0,91,0.00,,,0.01,WeatherCatV1.15B25,2013-07-10 02:38:00,
2013-07-09 22:43:00,67.2,64.5,30.01,ENE,67,0.0,0.0,91,0.00,,,0.01,WeatherCatV1.15B25,2013-07-10 02:43:00,
2013-07-09 22:48:00,67.1,64.4,30.01,ENE,67,0.0,0.0,91,0.00,,,0.01,WeatherCatV1.15B25,2013-07-10 02:48:00,
2013-07-09 22:53:00,67.1,64.4,30.01,ENE,67,0.0,0.0,91,0.00,,,0.01,WeatherCatV1.15B25,2013-07-10 02:53:00,
2013-07-09 22:58:00,67.1,64.4,30.01,ENE,67,0.0,0.0,91,0.00,,,0.01,WeatherCatV1.15B25,2013-07-10 02:58:00,
2013-07-09 23:03:00,67.0,64.3,30.01,ENE,67,0.0,0.0,91,0.00,,,0.01,WeatherCatV1.15B25,2013-07-10 03:03:00,
2013-07-09 23:08:00,67.0,64.3,30.01,ENE,67,0.0,0.0,91,0.00,,,0.01,WeatherCatV1.15B25,2013-07-10 03:08:00,
2013-07-09 23:13:00,67.0,64.3,30.02,ENE,67,0.0,0.0,91,0.00,,,0.01,WeatherCatV1.15B25,2013-07-10 03:13:00,
2013-07-09 23:18:00,67.1,64.7,30.02,ENE,67,0.0,0.0,92,0.00,,,0.01,WeatherCatV1.15B25,2013-07-10 03:18:00,
2013-07-09 23:23:00,67.1,64.7,30.02,ENE,67,0.0,0.0,92,0.00,,,0.01,WeatherCatV1.15B25,2013-07-10 03:23:00,
2013-07-09 23:28:00,67.1,64.7,30.02,NNE,30,0.0,0.0,92,0.00,,,0.01,WeatherCatV1.15B25,2013-07-10 03:28:00,
2013-07-09 23:33:00,67.1,64.7,30.01,NNE,30,0.0,0.0,92,0.00,,,0.01,WeatherCatV1.15B25,2013-07-10 03:33:00,
2013-07-09 23:38:00,67.1,64.7,30.01,NNE,30,0.0,0.0,92,0.00,,,0.01,WeatherCatV1.15B25,2013-07-10 03:38:00,
2013-07-09 23:43:00,67.1,64.7,30.01,NNE,30,0.0,0.0,92,0.00,,,0.01,WeatherCatV1.15B25,2013-07-10 03:43:00,
2013-07-09 23:48:00,67.0,64.6,30.01,NNE,30,0.0,0.0,92,0.00,,,0.01,WeatherCatV1.15B25,2013-07-10 03:48:00,
2013-07-09 23:53:00,67.0,64.6,30.01,NNE,30,0.0,0.0,92,0.00,,,0.01,WeatherCatV1.15B25,2013-07-10 03:53:00,
2013-07-09 23:58:00,67.0,64.6,30.01,NNE,30,0.0,0.0,92,0.00,,,0.01,WeatherCatV1.15B25,2013-07-10 03:58:00,